Time;durP1;ratioP1;P1;durP2;ratioP2;P2;SDS_P1;SDS_P2;PMS_P1;PMS_P2;Temp;Humidity;BMP_temperature;BMP_pressure;BME280_temperature;BME280_humidity;BME280_pressure;Samples;Min_cycle;Max_cycle;Signal;HPM_P1;HPM_P2
2023/07/05 00:00:39;;;;;;;;;;;15.80;68.40;;;;;;5048385;28;19929;-72
2023/07/05 00:03:05;;;;;;;;;;;15.70;68.40;;;;;;5048734;28;20325;-72
2023/07/05 00:05:30;;;;;;;;;;;15.70;68.40;;;;;;5048437;28;19913;-72
2023/07/05 00:07:56;;;;;;;;;;;15.60;68.40;;;;;;5048453;28;19995;-72
2023/07/05 00:10:22;;;;;;;;;;;15.50;68.30;;;;;;5048464;28;19912;-72
2023/07/05 00:12:47;;;;;;;;;;;15.40;68.30;;;;;;5048983;28;19982;-72
2023/07/05 00:15:13;;;;;;;;;;;15.30;68.30;;;;;;5047899;28;20325;-72
2023/07/05 00:17:38;;;;;;;;;;;15.30;68.40;;;;;;5048324;28;19935;-72
2023/07/05 00:20:05;;;;;;;;;;;15.20;68.40;;;;;;5048402;28;20002;-72
2023/07/05 00:22:31;;;;;;;;;;;15.10;68.40;;;;;;5048401;28;19908;-72
2023/07/05 00:24:57;;;;;;;;;;;15.00;68.40;;;;;;5048329;28;19916;-72
2023/07/05 00:27:23;;;;;;;;;;;14.90;68.40;;;;;;5047062;28;20276;-72
2023/07/05 00:29:49;;;;;;;;;;;14.80;68.40;;;;;;5048111;28;19912;-72
2023/07/05 00:32:15;;;;;;;;;;;14.70;68.40;;;;;;5048136;28;19916;-72
2023/07/05 00:34:40;;;;;;;;;;;14.60;68.50;;;;;;5048021;28;19913;-72
2023/07/05 00:37:06;;;;;;;;;;;14.50;68.50;;;;;;5048089;28;19967;-72
2023/07/05 00:39:31;;;;;;;;;;;14.40;68.50;;;;;;5048130;28;19994;-72
2023/07/05 00:41:57;;;;;;;;;;;14.40;68.50;;;;;;5048183;28;19908;-72
2023/07/05 00:44:23;;;;;;;;;;;14.30;68.50;;;;;;5047845;28;19909;-72
2023/07/05 00:46:53;;;;;;;;;;;14.20;68.50;;;;;;5047997;28;19913;-72
2023/07/05 00:49:20;;;;;;;;;;;14.20;68.50;;;;;;5046655;28;19999;-72
2023/07/05 00:51:49;;;;;;;;;;;14.10;68.50;;;;;;5048008;28;19909;-72
2023/07/05 00:54:16;;;;;;;;;;;14.00;68.50;;;;;;5047709;28;20337;-72
2023/07/05 00:57:02;;;;;;;;;;;13.90;68.50;;;;;;5049895;28;19967;-72
2023/07/05 00:59:29;;;;;;;;;;;13.90;68.60;;;;;;5050596;28;19913;-72
2023/07/05 01:01:55;;;;;;;;;;;13.80;68.60;;;;;;5051896;28;19982;-72
2023/07/05 01:04:21;;;;;;;;;;;13.80;68.60;;;;;;5050600;28;20293;-72
2023/07/05 01:06:47;;;;;;;;;;;13.70;68.50;;;;;;5051904;28;19908;-72
2023/07/05 01:09:12;;;;;;;;;;;13.70;68.50;;;;;;5051832;28;19920;-72
2023/07/05 01:11:41;;;;;;;;;;;13.60;68.50;;;;;;5051799;28;19909;-72
2023/07/05 01:14:16;;;;;;;;;;;13.60;68.50;;;;;;5051648;28;19909;-72
2023/07/05 01:16:58;;;;;;;;;;;13.50;68.50;;;;;;5051850;28;19917;-72
2023/07/05 01:19:24;;;;;;;;;;;13.50;68.60;;;;;;5051852;28;20011;-72
2023/07/05 01:21:53;;;;;;;;;;;13.50;68.50;;;;;;5051797;28;19996;-72
2023/07/05 01:24:31;;;;;;;;;;;13.40;68.50;;;;;;5051644;28;19916;-72
2023/07/05 01:27:18;;;;;;;;;;;13.40;68.50;;;;;;5051595;28;19908;-72
2023/07/05 01:30:07;;;;;;;;;;;13.30;68.40;;;;;;5051442;28;19955;-72
2023/07/05 01:32:43;;;;;;;;;;;13.30;68.50;;;;;;5043303;28;19952;-72
2023/07/05 01:35:24;;;;;;;;;;;13.20;68.50;;;;;;5051744;28;19928;-72
2023/07/05 01:37:50;;;;;;;;;;;13.20;68.50;;;;;;5051575;28;19909;-72
2023/07/05 01:40:22;;;;;;;;;;;13.10;68.50;;;;;;5051359;28;19913;-71
2023/07/05 01:42:58;;;;;;;;;;;13.10;68.50;;;;;;5051329;28;20351;-72
2023/07/05 01:45:34;;;;;;;;;;;13.00;68.50;;;;;;5051147;28;19912;-72
2023/07/05 01:48:18;;;;;;;;;;;13.00;68.50;;;;;;5049836;28;20288;-72
2023/07/05 01:50:50;;;;;;;;;;;12.90;68.50;;;;;;5049860;28;19913;-72
2023/07/05 01:53:18;;;;;;;;;;;12.80;68.50;;;;;;5051074;28;19913;-72
2023/07/05 01:55:54;;;;;;;;;;;12.80;68.50;;;;;;5050900;28;19962;-72
2023/07/05 01:58:22;;;;;;;;;;;12.70;68.50;;;;;;5051033;28;19912;-72
2023/07/05 02:00:48;;;;;;;;;;;12.70;68.50;;;;;;5050675;28;19951;-72
2023/07/05 02:03:16;;;;;;;;;;;12.70;68.60;;;;;;5050993;28;19916;-72
2023/07/05 02:05:41;;;;;;;;;;;12.60;68.60;;;;;;5050704;28;19908;-72
2023/07/05 02:08:07;;;;;;;;;;;12.60;68.50;;;;;;5050358;28;19963;-72
2023/07/05 02:10:33;;;;;;;;;;;12.60;68.50;;;;;;5050756;28;19919;-72
2023/07/05 02:12:59;;;;;;;;;;;12.60;68.60;;;;;;5050758;28;19909;-72
2023/07/05 02:15:25;;;;;;;;;;;12.60;68.50;;;;;;5050850;28;19913;-71
2023/07/05 02:17:50;;;;;;;;;;;12.50;68.50;;;;;;5050668;28;20392;-72
2023/07/05 02:20:16;;;;;;;;;;;12.50;68.50;;;;;;5050610;28;19913;-72
2023/07/05 02:22:42;;;;;;;;;;;12.50;68.50;;;;;;5050550;28;19919;-72
2023/07/05 02:25:08;;;;;;;;;;;12.50;68.50;;;;;;5050408;28;19913;-72
2023/07/05 02:27:35;;;;;;;;;;;12.50;68.60;;;;;;5050472;28;19920;-72
2023/07/05 02:30:00;;;;;;;;;;;12.50;68.60;;;;;;5050351;28;19920;-72
2023/07/05 02:32:26;;;;;;;;;;;12.40;68.50;;;;;;5050400;28;19909;-72
2023/07/05 02:34:54;;;;;;;;;;;12.40;68.50;;;;;;5050127;28;20392;-72
2023/07/05 02:37:20;;;;;;;;;;;12.40;68.50;;;;;;5050418;28;19916;-72
2023/07/05 02:39:51;;;;;;;;;;;12.40;68.50;;;;;;5050303;28;19924;-72
2023/07/05 02:42:16;;;;;;;;;;;12.40;68.50;;;;;;5049260;28;19994;-72
2023/07/05 02:44:42;;;;;;;;;;;12.40;68.50;;;;;;5050132;28;20381;-72
2023/07/05 02:47:07;;;;;;;;;;;12.40;68.50;;;;;;5050104;28;19913;-72
2023/07/05 02:49:33;;;;;;;;;;;12.50;68.50;;;;;;5050174;28;19919;-72
2023/07/05 02:51:58;;;;;;;;;;;12.50;68.60;;;;;;5050032;28;19909;-72
2023/07/05 02:54:24;;;;;;;;;;;12.50;68.50;;;;;;5049766;28;19917;-72
2023/07/05 02:56:49;;;;;;;;;;;12.60;68.50;;;;;;5049968;28;19923;-72
2023/07/05 02:59:15;;;;;;;;;;;12.70;68.50;;;;;;5049914;28;20003;-72
2023/07/05 03:01:41;;;;;;;;;;;12.70;68.50;;;;;;5031776;28;20459;-72
2023/07/05 03:04:06;;;;;;;;;;;12.80;68.50;;;;;;5049735;28;20272;-72
2023/07/05 03:06:32;;;;;;;;;;;12.80;68.60;;;;;;5049821;28;19943;-72
2023/07/05 03:08:57;;;;;;;;;;;12.90;69.10;;;;;;5049749;28;19913;-72
2023/07/05 03:11:23;;;;;;;;;;;13.00;68.50;;;;;;5049625;28;19909;-72
2023/07/05 03:13:48;;;;;;;;;;;13.00;68.50;;;;;;5049517;28;19975;-72
2023/07/05 03:16:14;;;;;;;;;;;13.00;68.40;;;;;;5049547;28;19913;-72
2023/07/05 03:18:40;;;;;;;;;;;13.10;68.50;;;;;;5048650;28;19998;-71
2023/07/05 03:21:05;;;;;;;;;;;13.10;68.40;;;;;;5049484;28;19909;-72
2023/07/05 03:23:31;;;;;;;;;;;13.20;68.50;;;;;;5049491;28;19912;-72
2023/07/05 03:25:57;;;;;;;;;;;13.20;68.50;;;;;;5049275;28;19920;-72
2023/07/05 03:28:24;;;;;;;;;;;13.20;68.40;;;;;;5049255;28;19912;-72
2023/07/05 03:30:56;;;;;;;;;;;13.20;68.40;;;;;;5049167;28;19917;-72
2023/07/05 03:33:22;;;;;;;;;;;13.20;68.40;;;;;;5049269;28;19956;-72
2023/07/05 03:36:01;;;;;;;;;;;13.20;68.50;;;;;;5049327;28;20385;-72
2023/07/05 03:38:27;;;;;;;;;;;13.20;68.40;;;;;;5049246;28;20349;-72
2023/07/05 03:40:59;;;;;;;;;;;13.20;68.40;;;;;;5049116;28;19939;-72
2023/07/05 03:43:26;;;;;;;;;;;13.20;68.40;;;;;;5049070;28;19908;-72
2023/07/05 03:45:52;;;;;;;;;;;13.20;68.40;;;;;;5048917;28;19995;-72
2023/07/05 03:48:18;;;;;;;;;;;13.10;68.40;;;;;;5048899;28;19913;-72
2023/07/05 03:50:43;;;;;;;;;;;13.10;68.40;;;;;;5048910;28;19912;-72
2023/07/05 03:53:09;;;;;;;;;;;13.10;68.40;;;;;;5047697;28;20007;-72
2023/07/05 03:55:35;;;;;;;;;;;13.00;68.40;;;;;;5047626;28;19917;-72
2023/07/05 03:58:00;;;;;;;;;;;13.00;68.40;;;;;;5049205;28;19959;-72
2023/07/05 04:00:26;;;;;;;;;;;12.90;68.30;;;;;;5047188;28;19925;-72
2023/07/05 04:02:51;;;;;;;;;;;12.90;68.40;;;;;;5048653;28;19959;-72
2023/07/05 04:05:17;;;;;;;;;;;12.90;68.50;;;;;;5048645;28;20353;-72
2023/07/05 04:07:44;;;;;;;;;;;12.80;68.50;;;;;;5046547;28;20574;-72
2023/07/05 04:10:11;;;;;;;;;;;12.80;68.60;;;;;;5048632;28;19913;-72
2023/07/05 04:12:37;;;;;;;;;;;12.80;68.60;;;;;;5048973;28;19920;-72
2023/07/05 04:15:02;;;;;;;;;;;12.80;68.50;;;;;;5048286;28;19912;-72
2023/07/05 04:17:29;;;;;;;;;;;12.80;68.50;;;;;;5047160;28;19921;-72
2023/07/05 04:19:54;;;;;;;;;;;12.80;68.50;;;;;;5048395;28;19915;-72
2023/07/05 04:22:20;;;;;;;;;;;12.90;68.60;;;;;;5048370;28;20370;-72
2023/07/05 04:24:45;;;;;;;;;;;12.90;68.60;;;;;;5048274;28;19909;-72
2023/07/05 04:27:11;;;;;;;;;;;12.90;68.60;;;;;;5046947;28;20218;-72
2023/07/05 04:29:37;;;;;;;;;;;12.90;68.60;;;;;;5048108;28;19917;-72
2023/07/05 04:32:03;;;;;;;;;;;13.00;68.70;;;;;;5048359;28;19913;-72
2023/07/05 04:34:28;;;;;;;;;;;13.00;68.70;;;;;;5048151;28;19916;-72
2023/07/05 04:36:54;;;;;;;;;;;13.10;68.70;;;;;;5046795;28;20282;-72
2023/07/05 04:39:20;;;;;;;;;;;13.10;68.70;;;;;;5048019;28;19909;-72
2023/07/05 04:41:45;;;;;;;;;;;13.10;68.70;;;;;;5048464;28;19915;-72
2023/07/05 04:44:11;;;;;;;;;;;13.20;68.70;;;;;;5048081;28;20476;-72
2023/07/05 04:46:36;;;;;;;;;;;13.20;68.70;;;;;;5047849;28;20304;-72
2023/07/05 04:49:02;;;;;;;;;;;13.20;68.60;;;;;;5048008;28;20274;-72
2023/07/05 04:51:28;;;;;;;;;;;13.20;68.50;;;;;;5047836;28;19916;-72
2023/07/05 04:53:53;;;;;;;;;;;13.30;68.60;;;;;;5047845;28;19909;-72
2023/07/05 04:56:19;;;;;;;;;;;13.30;68.60;;;;;;5047814;28;20000;-72
2023/07/05 04:58:44;;;;;;;;;;;13.30;68.60;;;;;;5047896;28;19913;-72
2023/07/05 05:01:13;;;;;;;;;;;13.30;68.60;;;;;;5047633;28;20289;-72
2023/07/05 05:03:38;;;;;;;;;;;13.30;68.60;;;;;;5047802;28;20403;-72
2023/07/05 05:06:04;;;;;;;;;;;13.40;68.70;;;;;;5047788;28;19908;-72
2023/07/05 05:08:30;;;;;;;;;;;13.40;68.70;;;;;;5047788;28;19955;-72
2023/07/05 05:10:57;;;;;;;;;;;13.50;68.80;;;;;;5046723;28;20377;-72
2023/07/05 05:13:23;;;;;;;;;;;13.50;68.80;;;;;;5047648;28;19991;-72
2023/07/05 05:15:49;;;;;;;;;;;13.60;68.80;;;;;;5047608;28;19963;-72
2023/07/05 05:18:15;;;;;;;;;;;13.60;68.80;;;;;;5047640;28;19975;-72
2023/07/05 05:20:40;;;;;;;;;;;13.70;68.80;;;;;;5047787;28;20388;-72
2023/07/05 05:23:06;;;;;;;;;;;13.80;68.70;;;;;;5047544;28;19997;-72
2023/07/05 05:25:32;;;;;;;;;;;13.90;68.70;;;;;;5047550;28;19917;-72
2023/07/05 05:27:58;;;;;;;;;;;14.00;68.80;;;;;;5046294;28;19909;-73
2023/07/05 05:30:24;;;;;;;;;;;14.00;68.80;;;;;;5047491;28;19913;-72
2023/07/05 05:32:49;;;;;;;;;;;14.10;68.70;;;;;;5047609;28;19916;-72
2023/07/05 05:35:15;;;;;;;;;;;14.10;68.70;;;;;;5047335;28;20035;-72
2023/07/05 05:37:41;;;;;;;;;;;14.20;68.70;;;;;;5047518;28;19909;-72
2023/07/05 05:40:08;;;;;;;;;;;14.20;68.70;;;;;;5047464;28;20404;-72
2023/07/05 05:42:33;;;;;;;;;;;14.30;68.80;;;;;;5049338;28;19914;-72
2023/07/05 05:44:59;;;;;;;;;;;14.30;68.70;;;;;;5050970;28;19913;-72
2023/07/05 05:47:25;;;;;;;;;;;14.40;68.70;;;;;;5051178;28;19920;-72
2023/07/05 05:49:50;;;;;;;;;;;14.40;68.60;;;;;;5049847;28;19916;-72
2023/07/05 05:52:16;;;;;;;;;;;14.50;68.70;;;;;;5051112;28;19966;-72
2023/07/05 05:54:41;;;;;;;;;;;14.60;68.60;;;;;;5050926;28;19955;-72
2023/07/05 05:57:07;;;;;;;;;;;14.70;68.60;;;;;;5050945;28;19955;-72
2023/07/05 05:59:33;;;;;;;;;;;14.70;68.50;;;;;;5050848;28;19967;-71
2023/07/05 06:01:58;;;;;;;;;;;14.80;68.50;;;;;;5050596;28;19921;-72
2023/07/05 06:04:24;;;;;;;;;;;14.90;68.70;;;;;;5050720;28;20296;-72
2023/07/05 06:06:50;;;;;;;;;;;15.00;68.70;;;;;;5050514;28;20380;-72
2023/07/05 06:09:15;;;;;;;;;;;15.10;68.80;;;;;;5050620;28;20261;-72
2023/07/05 06:11:41;;;;;;;;;;;15.10;68.70;;;;;;5050372;28;20023;-72
2023/07/05 06:14:07;;;;;;;;;;;15.20;68.60;;;;;;5050505;28;19932;-72
2023/07/05 06:16:33;;;;;;;;;;;15.30;68.60;;;;;;5050629;28;19913;-72
2023/07/05 06:18:59;;;;;;;;;;;15.30;68.60;;;;;;5050245;28;19920;-72
2023/07/05 06:21:24;;;;;;;;;;;15.40;68.50;;;;;;5050314;28;20054;-73
2023/07/05 06:23:50;;;;;;;;;;;15.40;68.50;;;;;;5050234;28;19913;-72
2023/07/05 06:26:17;;;;;;;;;;;15.50;68.60;;;;;;5049977;28;20300;-72
2023/07/05 06:28:42;;;;;;;;;;;15.50;68.60;;;;;;5050017;28;19909;-72
2023/07/05 06:31:09;;;;;;;;;;;15.60;68.60;;;;;;5048870;28;19913;-72
2023/07/05 06:33:35;;;;;;;;;;;15.70;68.60;;;;;;5050002;28;20324;-71
2023/07/05 06:36:01;;;;;;;;;;;15.70;68.60;;;;;;5049900;28;19913;-72
2023/07/05 06:38:27;;;;;;;;;;;15.80;68.70;;;;;;5049668;28;19915;-72
2023/07/05 06:40:53;;;;;;;;;;;15.80;68.70;;;;;;5049901;28;19912;-72
2023/07/05 06:43:19;;;;;;;;;;;15.90;68.80;;;;;;5050024;28;19996;-72
2023/07/05 06:45:52;;;;;;;;;;;16.00;68.70;;;;;;5048747;28;19908;-72
2023/07/05 06:48:18;;;;;;;;;;;16.10;68.80;;;;;;5050164;28;19909;-72
2023/07/05 06:50:43;;;;;;;;;;;16.20;68.70;;;;;;5049759;28;19979;-72
2023/07/05 06:53:12;;;;;;;;;;;16.30;68.60;;;;;;5049459;28;19956;-72
2023/07/05 06:55:38;;;;;;;;;;;16.40;68.60;;;;;;5049135;28;19966;-72
2023/07/05 06:58:04;;;;;;;;;;;16.50;68.70;;;;;;5049627;28;19917;-72
2023/07/05 07:00:29;;;;;;;;;;;16.60;68.50;;;;;;5048025;28;19925;-72
2023/07/05 07:02:55;;;;;;;;;;;16.50;68.50;;;;;;5049282;28;19909;-72
2023/07/05 07:05:20;;;;;;;;;;;16.50;68.60;;;;;;5047885;28;19912;-72
2023/07/05 07:07:46;;;;;;;;;;;16.50;68.60;;;;;;5049580;28;19912;-72
2023/07/05 07:10:11;;;;;;;;;;;16.50;68.70;;;;;;5049392;28;19923;-73
2023/07/05 07:12:37;;;;;;;;;;;16.60;68.90;;;;;;5049396;28;20369;-73
2023/07/05 07:15:02;;;;;;;;;;;16.70;68.90;;;;;;5049152;28;20273;-72
2023/07/05 07:17:28;;;;;;;;;;;16.80;68.90;;;;;;5049345;28;19917;-72
2023/07/05 07:19:54;;;;;;;;;;;16.90;68.80;;;;;;5049159;28;20283;-72
2023/07/05 07:22:19;;;;;;;;;;;17.00;68.80;;;;;;5049076;28;19916;-72
2023/07/05 07:24:45;;;;;;;;;;;16.90;68.60;;;;;;5048867;28;19913;-72
2023/07/05 07:27:10;;;;;;;;;;;16.80;68.60;;;;;;5049196;28;20016;-72
2023/07/05 07:29:36;;;;;;;;;;;16.80;68.70;;;;;;5049013;28;19929;-72
2023/07/05 07:32:02;;;;;;;;;;;16.90;68.90;;;;;;5049018;28;20023;-72
2023/07/05 07:34:31;;;;;;;;;;;16.90;69.00;;;;;;5048769;28;19913;-72
2023/07/05 07:36:56;;;;;;;;;;;17.00;69.00;;;;;;5048816;28;19920;-72
2023/07/05 07:39:22;;;;;;;;;;;16.90;68.90;;;;;;5048399;28;20384;-73
2023/07/05 07:41:47;;;;;;;;;;;16.90;68.90;;;;;;5048544;28;20299;-73
2023/07/05 07:44:16;;;;;;;;;;;17.00;69.30;;;;;;5048392;28;19915;-73
2023/07/05 07:46:42;;;;;;;;;;;17.40;69.50;;;;;;5048685;28;19966;-73
2023/07/05 07:49:09;;;;;;;;;;;17.90;69.30;;;;;;5048355;28;20383;-72
2023/07/05 07:51:36;;;;;;;;;;;18.20;69.00;;;;;;5048489;28;19954;-72
2023/07/05 07:54:02;;;;;;;;;;;18.30;68.60;;;;;;5048264;28;19919;-73
2023/07/05 07:56:27;;;;;;;;;;;18.40;68.50;;;;;;5046776;28;19913;-73
2023/07/05 07:58:54;;;;;;;;;;;18.30;68.50;;;;;;5048065;28;19932;-73
2023/07/05 08:01:27;;;;;;;;;;;18.30;68.40;;;;;;5048479;28;19936;-72
2023/07/05 08:03:56;;;;;;;;;;;18.20;68.40;;;;;;5048184;28;19916;-73
2023/07/05 08:06:31;;;;;;;;;;;18.20;68.60;;;;;;5047929;28;19929;-73
2023/07/05 08:08:57;;;;;;;;;;;18.30;68.90;;;;;;5048437;28;19909;-76
2023/07/05 08:11:23;;;;;;;;;;;18.60;69.40;;;;;;5047891;28;19913;-75
2023/07/05 08:13:49;;;;;;;;;;;19.40;69.80;;;;;;5047958;28;19925;-75
2023/07/05 08:16:15;;;;;;;;;;;20.70;70.00;;;;;;5047801;28;19912;-75
2023/07/05 08:18:41;;;;;;;;;;;21.90;69.10;;;;;;5047528;28;20050;-75
2023/07/05 08:21:07;;;;;;;;;;;22.70;67.50;;;;;;5047707;28;19935;-75
2023/07/05 08:23:32;;;;;;;;;;;23.30;67.70;;;;;;5047807;28;19954;-76
2023/07/05 08:26:00;;;;;;;;;;;24.20;67.90;;;;;;5047782;28;19913;-76
2023/07/05 08:28:26;;;;;;;;;;;25.30;67.60;;;;;;5047566;28;19913;-76
2023/07/05 08:31:02;;;;;;;;;;;26.30;67.30;;;;;;5047711;28;19974;-76
2023/07/05 08:33:29;;;;;;;;;;;27.10;67.00;;;;;;5046389;28;20007;-76
2023/07/05 08:36:08;;;;;;;;;;;27.10;66.40;;;;;;5046102;28;19967;-76
2023/07/05 08:38:34;;;;;;;;;;;26.80;66.70;;;;;;5047420;28;19928;-76
2023/07/05 08:41:05;;;;;;;;;;;27.60;68.10;;;;;;5047399;28;19913;-76
2023/07/05 08:43:42;;;;;;;;;;;28.40;67.80;;;;;;5047299;28;19959;-73
2023/07/05 08:46:10;;;;;;;;;;;28.70;67.40;;;;;;5047237;28;19916;-73
2023/07/05 08:48:36;;;;;;;;;;;28.60;67.00;;;;;;5047207;28;19912;-73
2023/07/05 08:51:02;;;;;;;;;;;28.30;67.10;;;;;;5047424;28;19912;-76
2023/07/05 08:53:28;;;;;;;;;;;27.60;66.90;;;;;;5047367;28;19917;-72
2023/07/05 08:56:06;;;;;;;;;;;26.50;66.90;;;;;;5046775;28;20003;-75
2023/07/05 08:58:31;;;;;;;;;;;25.30;66.90;;;;;;5046599;28;19954;-73
2023/07/05 09:01:04;;;;;;;;;;;24.10;67.40;;;;;;5046376;28;20019;-73
2023/07/05 09:03:30;;;;;;;;;;;23.10;68.20;;;;;;5047868;28;19920;-73
2023/07/05 09:05:56;;;;;;;;;;;22.30;68.70;;;;;;5047740;28;19913;-73
2023/07/05 09:08:31;;;;;;;;;;;22.10;70.00;;;;;;5048742;28;20392;-75
2023/07/05 09:11:10;;;;;;;;;;;22.10;69.80;;;;;;5045427;28;19927;-76
2023/07/05 09:13:40;;;;;;;;;;;22.70;70.60;;;;;;5047449;28;19916;-72
2023/07/05 09:16:20;;;;;;;;;;;23.70;71.00;;;;;;5048149;28;19913;-73
2023/07/05 09:18:54;;;;;;;;;;;24.60;70.10;;;;;;5052497;28;19982;-78
2023/07/05 09:21:40;;;;;;;;;;;25.20;69.30;;;;;;5047706;28;20027;-77
2023/07/05 09:24:17;;;;;;;;;;;25.30;68.70;;;;;;5048729;28;20373;-76
2023/07/05 09:26:47;;;;;;;;;;;24.90;68.10;;;;;;5051772;28;20380;-73
2023/07/05 09:29:13;;;;;;;;;;;24.20;67.50;;;;;;5043276;28;20004;-72
2023/07/05 09:31:39;;;;;;;;;;;23.30;67.40;;;;;;5045664;28;20415;-72
2023/07/05 09:34:11;;;;;;;;;;;22.40;67.80;;;;;;5038798;28;19978;-71
2023/07/05 09:36:37;;;;;;;;;;;21.70;68.40;;;;;;5044596;28;19917;-72
2023/07/05 09:39:21;;;;;;;;;;;21.20;69.00;;;;;;5036143;28;20001;-72
2023/07/05 09:41:49;;;;;;;;;;;21.00;69.60;;;;;;5039667;28;19916;-72
2023/07/05 09:44:17;;;;;;;;;;;20.90;69.90;;;;;;5040987;28;20052;-72
2023/07/05 09:46:43;;;;;;;;;;;21.10;70.20;;;;;;5040198;28;19928;-72
2023/07/05 09:49:15;;;;;;;;;;;22.00;71.40;;;;;;5041093;28;19917;-72
2023/07/05 09:51:44;;;;;;;;;;;22.90;71.00;;;;;;5051599;28;19965;-72
2023/07/05 09:54:21;;;;;;;;;;;23.40;69.70;;;;;;5051561;28;19969;-71
2023/07/05 09:57:06;;;;;;;;;;;23.10;68.80;;;;;;5051120;28;19926;-72
2023/07/05 09:59:32;;;;;;;;;;;22.50;67.80;;;;;;5050723;28;19965;-71
2023/07/05 10:02:19;;;;;;;;;;;21.50;67.50;;;;;;5049872;28;20231;-72
2023/07/05 10:04:49;;;;;;;;;;;20.80;68.40;;;;;;5050850;28;19920;-73
2023/07/05 10:07:22;;;;;;;;;;;20.40;69.20;;;;;;5051956;28;19955;-73
2023/07/05 10:09:54;;;;;;;;;;;20.80;71.10;;;;;;5051846;28;19920;-72
2023/07/05 10:12:20;;;;;;;;;;;21.80;70.70;;;;;;5051562;28;19947;-74
2023/07/05 10:14:53;;;;;;;;;;;22.70;70.80;;;;;;5051512;28;19936;-73
2023/07/05 10:17:18;;;;;;;;;;;23.60;70.20;;;;;;5050875;28;20568;-72
2023/07/05 10:19:49;;;;;;;;;;;24.40;70.00;;;;;;5050601;28;20003;-72
2023/07/05 10:22:26;;;;;;;;;;;24.80;69.30;;;;;;5051194;28;20018;-73
2023/07/05 10:24:54;;;;;;;;;;;24.80;69.10;;;;;;5051053;28;19913;-73
2023/07/05 10:27:21;;;;;;;;;;;25.70;70.40;;;;;;5051024;28;19915;-73
2023/07/05 10:29:56;;;;;;;;;;;26.90;70.30;;;;;;5050838;28;19919;-72
2023/07/05 10:32:22;;;;;;;;;;;27.10;69.00;;;;;;5051214;28;19920;-73
2023/07/05 10:34:50;;;;;;;;;;;26.60;68.00;;;;;;5050549;28;19928;-72
2023/07/05 10:37:35;;;;;;;;;;;26.70;69.50;;;;;;5050760;28;19909;-72
2023/07/05 10:40:09;;;;;;;;;;;27.20;69.80;;;;;;5050919;28;20007;-73
2023/07/05 10:42:41;;;;;;;;;;;27.60;69.30;;;;;;5050599;28;19909;-72
2023/07/05 10:45:13;;;;;;;;;;;27.90;69.80;;;;;;5050706;28;19913;-72
2023/07/05 10:47:39;;;;;;;;;;;28.80;70.20;;;;;;5050565;28;20369;-72
2023/07/05 10:50:06;;;;;;;;;;;29.30;69.50;;;;;;5050552;28;20392;-73
2023/07/05 10:52:36;;;;;;;;;;;29.50;69.40;;;;;;5050402;28;20233;-73
2023/07/05 10:55:05;;;;;;;;;;;29.80;69.40;;;;;;5049935;28;19916;-74
2023/07/05 10:57:38;;;;;;;;;;;29.30;68.60;;;;;;5050582;28;19908;-74
2023/07/05 11:00:21;;;;;;;;;;;28.50;68.00;;;;;;5050444;28;19948;-73
2023/07/05 11:02:55;;;;;;;;;;;27.80;69.20;;;;;;5049921;28;20250;-71
2023/07/05 11:05:26;;;;;;;;;;;28.40;70.70;;;;;;5050124;28;20361;-71
2023/07/05 11:07:53;;;;;;;;;;;29.40;71.10;;;;;;5050096;28;19923;-70
2023/07/05 11:10:19;;;;;;;;;;;29.90;70.10;;;;;;5050235;28;20423;-71
2023/07/05 11:12:46;;;;;;;;;;;29.80;70.40;;;;;;5050227;28;19933;-70
2023/07/05 11:15:13;;;;;;;;;;;30.10;70.30;;;;;;5050005;28;19920;-71
2023/07/05 11:17:40;;;;;;;;;;;30.60;70.50;;;;;;5050108;28;20008;-73
2023/07/05 11:20:32;;;;;;;;;;;31.00;70.50;;;;;;5049987;28;19963;-72
2023/07/05 11:22:57;;;;;;;;;;;31.30;70.30;;;;;;5046834;28;20501;-70
2023/07/05 11:25:43;;;;;;;;;;;31.70;70.40;;;;;;5049367;28;19913;-76
2023/07/05 11:28:28;;;;;;;;;;;32.10;70.50;;;;;;5049286;28;19944;-74
2023/07/05 11:30:55;;;;;;;;;;;31.50;69.00;;;;;;5048698;28;20254;-76
2023/07/05 11:33:22;;;;;;;;;;;30.30;68.50;;;;;;5048124;28;20471;-75
2023/07/05 11:35:48;;;;;;;;;;;29.10;68.20;;;;;;5049518;28;19913;-75
2023/07/05 11:38:32;;;;;;;;;;;27.90;68.50;;;;;;5049537;28;19909;-75
2023/07/05 11:40:59;;;;;;;;;;;27.10;69.10;;;;;;5048082;28;20109;-74
2023/07/05 11:43:26;;;;;;;;;;;26.50;69.60;;;;;;5048641;28;20012;-74
2023/07/05 11:45:52;;;;;;;;;;;26.10;69.70;;;;;;5049081;28;19912;-75
2023/07/05 11:48:36;;;;;;;;;;;25.80;69.50;;;;;;5048750;28;19924;-75
2023/07/05 11:51:01;;;;;;;;;;;25.50;69.50;;;;;;5049441;28;19920;-74
2023/07/05 11:53:31;;;;;;;;;;;25.10;69.50;;;;;;5048715;28;19917;-74
2023/07/05 11:55:58;;;;;;;;;;;24.80;69.50;;;;;;5047986;28;20022;-76
2023/07/05 11:58:27;;;;;;;;;;;24.30;69.40;;;;;;5038621;28;20002;-74
2023/07/05 12:00:58;;;;;;;;;;;24.10;69.90;;;;;;5036699;28;19928;-72
2023/07/05 12:03:25;;;;;;;;;;;24.10;70.30;;;;;;5038495;28;19944;-72
2023/07/05 12:06:03;;;;;;;;;;;24.40;70.00;;;;;;5037404;28;19982;-72
2023/07/05 12:08:34;;;;;;;;;;;24.40;69.50;;;;;;5037221;28;19913;-71
2023/07/05 12:11:00;;;;;;;;;;;24.60;69.90;;;;;;5038423;28;19909;-72
2023/07/05 12:13:29;;;;;;;;;;;25.00;70.00;;;;;;5037660;28;19962;-72
2023/07/05 12:15:55;;;;;;;;;;;25.40;69.90;;;;;;5034507;28;19920;-69
2023/07/05 12:18:21;;;;;;;;;;;25.60;69.60;;;;;;5039879;28;20364;-70
2023/07/05 12:20:58;;;;;;;;;;;26.10;70.40;;;;;;5035911;28;19917;-69
2023/07/05 12:23:24;;;;;;;;;;;26.80;70.20;;;;;;5035165;28;20269;-71
2023/07/05 12:25:54;;;;;;;;;;;27.30;70.00;;;;;;5039229;28;20011;-71
2023/07/05 12:28:27;;;;;;;;;;;27.50;69.90;;;;;;5029108;28;19916;-72
2023/07/05 12:31:01;;;;;;;;;;;28.00;70.10;;;;;;5028654;28;19953;-72
2023/07/05 12:33:29;;;;;;;;;;;28.40;70.30;;;;;;5028861;28;19956;-72
2023/07/05 12:36:08;;;;;;;;;;;28.80;70.50;;;;;;5027421;28;19913;-73
2023/07/05 12:38:34;;;;;;;;;;;28.70;69.70;;;;;;5028487;28;19916;-73
2023/07/05 12:41:00;;;;;;;;;;;28.30;69.60;;;;;;5028570;28;20003;-72
2023/07/05 12:43:29;;;;;;;;;;;27.90;69.60;;;;;;5028620;28;19909;-72
2023/07/05 12:46:09;;;;;;;;;;;27.40;69.40;;;;;;5028812;28;20017;-72
2023/07/05 12:48:35;;;;;;;;;;;27.00;69.20;;;;;;5028503;28;20434;-73
2023/07/05 12:51:02;;;;;;;;;;;26.30;68.60;;;;;;5028075;28;20342;-72
2023/07/05 12:53:28;;;;;;;;;;;25.60;68.40;;;;;;5028777;28;20350;-72
2023/07/05 12:55:56;;;;;;;;;;;24.80;68.10;;;;;;5028157;28;19959;-72
2023/07/05 12:58:23;;;;;;;;;;;24.10;68.30;;;;;;5026927;28;19975;-71
2023/07/05 13:00:50;;;;;;;;;;;23.50;68.90;;;;;;5027890;28;20366;-72
2023/07/05 13:03:16;;;;;;;;;;;23.20;69.30;;;;;;5026510;28;19913;-71
2023/07/05 13:05:41;;;;;;;;;;;23.00;69.20;;;;;;5028352;28;20354;-72
2023/07/05 13:08:09;;;;;;;;;;;22.90;69.40;;;;;;5027964;28;19924;-72
2023/07/05 13:10:38;;;;;;;;;;;22.90;69.60;;;;;;5027994;28;20044;-72
2023/07/05 13:13:19;;;;;;;;;;;23.00;69.60;;;;;;5028135;28;20371;-72
2023/07/05 13:15:44;;;;;;;;;;;23.00;69.30;;;;;;5028227;28;19917;-73
2023/07/05 13:18:29;;;;;;;;;;;23.10;69.20;;;;;;5027416;28;19928;-72
2023/07/05 13:21:14;;;;;;;;;;;23.10;69.00;;;;;;5028618;28;19971;-71
2023/07/05 13:23:46;;;;;;;;;;;23.10;69.10;;;;;;5028635;28;20336;-71
2023/07/05 13:26:26;;;;;;;;;;;23.40;69.40;;;;;;5028471;28;19921;-71
2023/07/05 13:28:53;;;;;;;;;;;23.60;69.30;;;;;;5035969;28;19959;-71
2023/07/05 13:31:20;;;;;;;;;;;23.80;69.00;;;;;;5045613;28;20314;-71
2023/07/05 13:33:45;;;;;;;;;;;23.90;68.90;;;;;;5042117;28;19951;-71
2023/07/05 13:36:11;;;;;;;;;;;23.80;68.60;;;;;;5037069;28;19964;-71
2023/07/05 13:38:36;;;;;;;;;;;23.70;68.70;;;;;;5039680;28;20376;-71
2023/07/05 13:41:03;;;;;;;;;;;23.60;68.90;;;;;;5038715;28;19920;-71
2023/07/05 13:43:33;;;;;;;;;;;23.70;69.00;;;;;;5038385;28;19949;-71
2023/07/05 13:46:00;;;;;;;;;;;23.80;68.90;;;;;;5039703;28;19999;-71
2023/07/05 13:48:26;;;;;;;;;;;23.90;68.90;;;;;;5035501;28;19978;-71
2023/07/05 13:50:51;;;;;;;;;;;24.00;68.80;;;;;;5038691;28;20701;-71
2023/07/05 13:53:24;;;;;;;;;;;24.00;68.60;;;;;;5037302;28;19920;-72
2023/07/05 13:55:50;;;;;;;;;;;23.90;68.50;;;;;;5037761;28;19913;-71
2023/07/05 13:58:16;;;;;;;;;;;23.80;68.30;;;;;;5041737;28;19920;-72
2023/07/05 14:00:43;;;;;;;;;;;23.70;68.30;;;;;;5038279;28;19928;-72
2023/07/05 14:03:09;;;;;;;;;;;23.60;68.70;;;;;;5047638;28;19920;-72
2023/07/05 14:05:35;;;;;;;;;;;23.80;68.90;;;;;;5051295;28;19913;-72
2023/07/05 14:08:02;;;;;;;;;;;23.90;68.70;;;;;;5052143;28;19912;-70
2023/07/05 14:10:28;;;;;;;;;;;23.80;68.40;;;;;;5050829;28;20007;-72
2023/07/05 14:12:54;;;;;;;;;;;23.50;68.30;;;;;;5051076;28;20296;-73
2023/07/05 14:15:23;;;;;;;;;;;23.20;68.20;;;;;;5049807;28;19921;-72
2023/07/05 14:17:48;;;;;;;;;;;23.20;68.50;;;;;;5051145;28;19919;-73
2023/07/05 14:20:14;;;;;;;;;;;23.20;68.70;;;;;;5051171;28;20399;-72
2023/07/05 14:22:39;;;;;;;;;;;23.20;68.40;;;;;;5051143;28;19912;-72